sensor_id;sensor_type;location;lat;lon;timestamp;pressure;altitude;pressure_sealevel;temperature;humidity
69622;BME280;56841;55.964;37.674;2023-07-13T00:00:38;98596.13;;;12.18;100.00
69622;BME280;56841;55.964;37.674;2023-07-13T00:03:04;98590.22;;;12.16;100.00
69622;BME280;56841;55.964;37.674;2023-07-13T00:05:30;98585.16;;;12.21;100.00
69622;BME280;56841;55.964;37.674;2023-07-13T00:07:57;98593.47;;;12.12;100.00
69622;BME280;56841;55.964;37.674;2023-07-13T00:10:23;98594.28;;;12.12;100.00
69622;BME280;56841;55.964;37.674;2023-07-13T00:12:49;98596.53;;;12.08;100.00
69622;BME280;56841;55.964;37.674;2023-07-13T00:15:20;98589.38;;;12.02;100.00
69622;BME280;56841;55.964;37.674;2023-07-13T00:17:50;98588.19;;;12.12;100.00
69622;BME280;56841;55.964;37.674;2023-07-13T00:20:18;98586.16;;;12.07;100.00
69622;BME280;56841;55.964;37.674;2023-07-13T00:22:43;98586.16;;;12.07;100.00
69622;BME280;56841;55.964;37.674;2023-07-13T00:25:12;98586.56;;;12.11;100.00
69622;BME280;56841;55.964;37.674;2023-07-13T00:27:38;98583.31;;;12.08;100.00
69622;BME280;56841;55.964;37.674;2023-07-13T00:30:04;98586.16;;;12.14;100.00
69622;BME280;56841;55.964;37.674;2023-07-13T00:32:31;98591.66;;;12.12;100.00
69622;BME280;56841;55.964;37.674;2023-07-13T00:34:57;98586.56;;;12.11;100.00
69622;BME280;56841;55.964;37.674;2023-07-13T00:37:25;98582.28;;;12.09;100.00
69622;BME280;56841;55.964;37.674;2023-07-13T00:39:51;98577.59;;;12.05;100.00
69622;BME280;56841;55.964;37.674;2023-07-13T00:42:17;98584.50;;;12.13;100.00
69622;BME280;56841;55.964;37.674;2023-07-13T00:45:04;98591.03;;;12.10;100.00
69622;BME280;56841;55.964;37.674;2023-07-13T00:47:31;98579.22;;;12.13;100.00
69622;BME280;56841;55.964;37.674;2023-07-13T00:49:57;98585.13;;;12.08;100.00
69622;BME280;56841;55.964;37.674;2023-07-13T00:52:24;98581.47;;;12.09;100.00
69622;BME280;56841;55.964;37.674;2023-07-13T00:54:50;98580.88;;;12.07;100.00
69622;BME280;56841;55.964;37.674;2023-07-13T00:57:19;98581.06;;;12.05;100.00
69622;BME280;56841;55.964;37.674;2023-07-13T00:59:50;98581.47;;;12.09;100.00
69622;BME280;56841;55.964;37.674;2023-07-13T01:02:17;98581.06;;;12.12;100.00
69622;BME280;56841;55.964;37.674;2023-07-13T01:04:43;98577.38;;;12.13;100.00
69622;BME280;56841;55.964;37.674;2023-07-13T01:07:11;98566.63;;;12.08;100.00
69622;BME280;56841;55.964;37.674;2023-07-13T01:09:38;98573.75;;;12.14;100.00
69622;BME280;56841;55.964;37.674;2023-07-13T01:12:04;98563.75;;;12.16;100.00
69622;BME280;56841;55.964;37.674;2023-07-13T01:14:30;98570.88;;;12.16;100.00
69622;BME280;56841;55.964;37.674;2023-07-13T01:16:56;98564.38;;;12.18;100.00
69622;BME280;56841;55.964;37.674;2023-07-13T01:21:55;98564.97;;;12.20;100.00
69622;BME280;56841;55.964;37.674;2023-07-13T01:24:20;98572.72;;;12.22;100.00
69622;BME280;56841;55.964;37.674;2023-07-13T01:26:48;98568.47;;;12.21;100.00
69622;BME280;56841;55.964;37.674;2023-07-13T01:29:14;98566.00;;;12.19;100.00
69622;BME280;56841;55.964;37.674;2023-07-13T01:31:41;98578.22;;;12.27;100.00
69622;BME280;56841;55.964;37.674;2023-07-13T01:34:06;98572.91;;;12.27;100.00
69622;BME280;56841;55.964;37.674;2023-07-13T01:36:33;98565.19;;;12.25;100.00
69622;BME280;56841;55.964;37.674;2023-07-13T01:38:59;98560.94;;;12.24;100.00
69622;BME280;56841;55.964;37.674;2023-07-13T01:41:25;98559.09;;;12.25;100.00
69622;BME280;56841;55.964;37.674;2023-07-13T01:43:53;98564.56;;;12.30;100.00
69622;BME280;56841;55.964;37.674;2023-07-13T01:46:19;98555.22;;;12.27;100.00
69622;BME280;56841;55.964;37.674;2023-07-13T01:48:44;98563.34;;;12.26;100.00
69622;BME280;56841;55.964;37.674;2023-07-13T01:51:10;98573.53;;;12.29;100.00
69622;BME280;56841;55.964;37.674;2023-07-13T01:53:36;98567.03;;;12.31;100.00
69622;BME280;56841;55.964;37.674;2023-07-13T01:56:02;98565.38;;;12.30;100.00
69622;BME280;56841;55.964;37.674;2023-07-13T01:58:27;98559.28;;;12.37;100.00
69622;BME280;56841;55.964;37.674;2023-07-13T02:00:54;98548.69;;;12.37;100.00
69622;BME280;56841;55.964;37.674;2023-07-13T02:03:20;98545.84;;;12.31;100.00
69622;BME280;56841;55.964;37.674;2023-07-13T02:05:46;98551.94;;;12.39;100.00
69622;BME280;56841;55.964;37.674;2023-07-13T02:08:12;98548.69;;;12.43;100.00
69622;BME280;56841;55.964;37.674;2023-07-13T02:10:38;98541.53;;;12.44;100.00
69622;BME280;56841;55.964;37.674;2023-07-13T02:13:06;98544.19;;;12.50;100.00
69622;BME280;56841;55.964;37.674;2023-07-13T02:15:32;98548.91;;;12.42;100.00
69622;BME280;56841;55.964;37.674;2023-07-13T02:17:58;98547.47;;;12.46;100.00
69622;BME280;56841;55.964;37.674;2023-07-13T02:20:44;98548.50;;;12.45;100.00
69622;BME280;56841;55.964;37.674;2023-07-13T02:23:10;98549.09;;;12.47;100.00
69622;BME280;56841;55.964;37.674;2023-07-13T02:25:36;98542.56;;;12.49;100.00
69622;BME280;56841;55.964;37.674;2023-07-13T02:28:02;98534.63;;;12.49;100.00
69622;BME280;56841;55.964;37.674;2023-07-13T02:30:30;98534.00;;;12.54;100.00
69622;BME280;56841;55.964;37.674;2023-07-13T02:32:56;98531.75;;;12.57;100.00
69622;BME280;56841;55.964;37.674;2023-07-13T02:35:23;98530.13;;;12.63;100.00
69622;BME280;56841;55.964;37.674;2023-07-13T02:37:48;98531.97;;;12.63;100.00
69622;BME280;56841;55.964;37.674;2023-07-13T02:40:14;98531.53;;;12.72;100.00
69622;BME280;56841;55.964;37.674;2023-07-13T02:42:40;98538.84;;;12.77;100.00
69622;BME280;56841;55.964;37.674;2023-07-13T02:45:07;98530.91;;;12.70;100.00
69622;BME280;56841;55.964;37.674;2023-07-13T02:47:34;98532.75;;;12.70;100.00
69622;BME280;56841;55.964;37.674;2023-07-13T02:50:00;98529.06;;;12.77;100.00
69622;BME280;56841;55.964;37.674;2023-07-13T02:52:26;98524.78;;;12.76;100.00
69622;BME280;56841;55.964;37.674;2023-07-13T02:54:52;98515.63;;;12.72;100.00
69622;BME280;56841;55.964;37.674;2023-07-13T02:57:18;98513.00;;;12.72;100.00
69622;BME280;56841;55.964;37.674;2023-07-13T02:59:44;98513.59;;;12.68;100.00
69622;BME280;56841;55.964;37.674;2023-07-13T03:02:10;98511.75;;;12.75;100.00
69622;BME280;56841;55.964;37.674;2023-07-13T03:04:36;98514.19;;;12.76;100.00
69622;BME280;56841;55.964;37.674;2023-07-13T03:07:03;98516.81;;;12.83;100.00
69622;BME280;56841;55.964;37.674;2023-07-13T03:09:35;98521.28;;;12.89;100.00
69622;BME280;56841;55.964;37.674;2023-07-13T03:12:02;98521.47;;;12.94;100.00
69622;BME280;56841;55.964;37.674;2023-07-13T03:14:31;98519.22;;;12.98;99.70
69622;BME280;56841;55.964;37.674;2023-07-13T03:16:58;98526.94;;;13.06;99.14
69622;BME280;56841;55.964;37.674;2023-07-13T03:19:27;98522.88;;;13.03;99.34
69622;BME280;56841;55.964;37.674;2023-07-13T03:21:55;98522.88;;;13.03;99.53
69622;BME280;56841;55.964;37.674;2023-07-13T03:24:21;98518.59;;;13.02;99.37
69622;BME280;56841;55.964;37.674;2023-07-13T03:26:51;98526.13;;;12.99;99.11
69622;BME280;56841;55.964;37.674;2023-07-13T03:29:17;98526.94;;;13.06;98.65
69622;BME280;56841;55.964;37.674;2023-07-13T03:31:43;98528.97;;;13.04;99.07
69622;BME280;56841;55.964;37.674;2023-07-13T03:34:09;98525.69;;;13.09;98.36
69622;BME280;56841;55.964;37.674;2023-07-13T03:36:36;98529.34;;;13.14;98.40
69622;BME280;56841;55.964;37.674;2023-07-13T03:39:05;98533.19;;;13.18;98.12
69622;BME280;56841;55.964;37.674;2023-07-13T03:41:45;98525.63;;;13.22;97.94
69622;BME280;56841;55.964;37.674;2023-07-13T03:44:12;98532.16;;;13.19;97.30
69622;BME280;56841;55.964;37.674;2023-07-13T03:46:37;98531.78;;;13.16;97.70
69622;BME280;56841;55.964;37.674;2023-07-13T03:49:04;98522.81;;;13.17;98.01
69622;BME280;56841;55.964;37.674;2023-07-13T03:51:32;98524.66;;;13.16;97.98
69622;BME280;56841;55.964;37.674;2023-07-13T03:53:59;98530.94;;;13.22;97.80
69622;BME280;56841;55.964;37.674;2023-07-13T03:56:25;98523.78;;;13.22;97.93
69622;BME280;56841;55.964;37.674;2023-07-13T03:58:51;98530.13;;;13.21;98.30
69622;BME280;56841;55.964;37.674;2023-07-13T04:01:21;98530.78;;;13.17;98.18
69622;BME280;56841;55.964;37.674;2023-07-13T04:03:47;98527.47;;;13.21;98.00
69622;BME280;56841;55.964;37.674;2023-07-13T04:06:23;98541.56;;;13.15;98.13
69622;BME280;56841;55.964;37.674;2023-07-13T04:08:54;98536.47;;;13.20;97.71
69622;BME280;56841;55.964;37.674;2023-07-13T04:11:22;98534.81;;;13.26;97.74
69622;BME280;56841;55.964;37.674;2023-07-13T04:13:49;98543.00;;;13.24;97.54
69622;BME280;56841;55.964;37.674;2023-07-13T04:16:16;98536.03;;;13.23;97.45
69622;BME280;56841;55.964;37.674;2023-07-13T04:18:43;98540.72;;;13.21;97.98
69622;BME280;56841;55.964;37.674;2023-07-13T04:21:09;98545.22;;;13.27;97.17
69622;BME280;56841;55.964;37.674;2023-07-13T04:23:35;98551.94;;;13.23;97.33
69622;BME280;56841;55.964;37.674;2023-07-13T04:26:01;98553.97;;;13.28;97.47
69622;BME280;56841;55.964;37.674;2023-07-13T04:28:27;98553.97;;;13.35;97.39
69622;BME280;56841;55.964;37.674;2023-07-13T04:30:53;98557.00;;;13.38;97.21
69622;BME280;56841;55.964;37.674;2023-07-13T04:33:19;98548.81;;;13.40;96.76
69622;BME280;56841;55.964;37.674;2023-07-13T04:35:49;98550.09;;;13.31;97.47
69622;BME280;56841;55.964;37.674;2023-07-13T04:38:15;98548.03;;;13.33;97.04
69622;BME280;56841;55.964;37.674;2023-07-13T04:40:45;98543.13;;;13.36;97.03
69622;BME280;56841;55.964;37.674;2023-07-13T04:43:11;98545.16;;;13.41;96.80
69622;BME280;56841;55.964;37.674;2023-07-13T04:45:37;98546.63;;;13.37;97.34
69622;BME280;56841;55.964;37.674;2023-07-13T04:48:03;98550.28;;;13.36;98.31
69622;BME280;56841;55.964;37.674;2023-07-13T04:50:29;98546.81;;;13.35;99.23
69622;BME280;56841;55.964;37.674;2023-07-13T04:52:54;98552.94;;;13.36;99.28
69622;BME280;56841;55.964;37.674;2023-07-13T04:55:20;98553.69;;;13.43;99.59
69622;BME280;56841;55.964;37.674;2023-07-13T04:57:46;98538.59;;;13.43;98.89
69622;BME280;56841;55.964;37.674;2023-07-13T05:00:13;98539.63;;;13.42;98.61
69622;BME280;56841;55.964;37.674;2023-07-13T05:02:44;98525.88;;;13.59;99.13
69622;BME280;56841;55.964;37.674;2023-07-13T05:05:11;98535.00;;;13.69;98.05
69622;BME280;56841;55.964;37.674;2023-07-13T05:07:37;98531.50;;;13.75;96.86
69622;BME280;56841;55.964;37.674;2023-07-13T05:10:03;98527.94;;;13.88;96.08
69622;BME280;56841;55.964;37.674;2023-07-13T05:12:31;98531.41;;;13.89;95.41
69622;BME280;56841;55.964;37.674;2023-07-13T05:14:56;98526.69;;;13.91;95.25
69622;BME280;56841;55.964;37.674;2023-07-13T05:17:22;98539.47;;;14.01;95.15
69622;BME280;56841;55.964;37.674;2023-07-13T05:19:48;98546.84;;;13.98;95.77
69622;BME280;56841;55.964;37.674;2023-07-13T05:22:13;98542.34;;;13.99;95.24
69622;BME280;56841;55.964;37.674;2023-07-13T05:24:39;98537.94;;;14.11;93.85
69622;BME280;56841;55.964;37.674;2023-07-13T05:27:05;98542.50;;;14.04;93.34
69622;BME280;56841;55.964;37.674;2023-07-13T05:29:31;98538.66;;;14.00;93.14
69622;BME280;56841;55.964;37.674;2023-07-13T05:31:57;98543.50;;;14.10;92.80
69622;BME280;56841;55.964;37.674;2023-07-13T05:34:22;98543.50;;;14.10;92.12
69622;BME280;56841;55.964;37.674;2023-07-13T05:36:48;98542.25;;;14.12;91.67
69622;BME280;56841;55.964;37.674;2023-07-13T05:39:15;98534.00;;;14.20;91.01
69622;BME280;56841;55.964;37.674;2023-07-13T05:41:41;98537.66;;;14.26;91.20
69622;BME280;56841;55.964;37.674;2023-07-13T05:44:07;98527.03;;;14.26;91.05
69622;BME280;56841;55.964;37.674;2023-07-13T05:46:33;98528.09;;;14.43;90.65
69622;BME280;56841;55.964;37.674;2023-07-13T05:48:59;98524.56;;;14.50;89.78
69622;BME280;56841;55.964;37.674;2023-07-13T05:51:25;98524.38;;;14.51;88.66
69622;BME280;56841;55.964;37.674;2023-07-13T05:53:50;98517.44;;;14.50;86.36
69622;BME280;56841;55.964;37.674;2023-07-13T05:56:16;98512.25;;;14.55;86.07
69622;BME280;56841;55.964;37.674;2023-07-13T05:58:42;98512.69;;;14.52;84.75
69622;BME280;56841;55.964;37.674;2023-07-13T06:01:12;98508.28;;;14.64;84.77
69622;BME280;56841;55.964;37.674;2023-07-13T06:03:38;98516.75;;;14.73;84.36
69622;BME280;56841;55.964;37.674;2023-07-13T06:06:06;98519.50;;;14.85;83.10
69622;BME280;56841;55.964;37.674;2023-07-13T06:08:32;98522.16;;;14.85;82.33
69622;BME280;56841;55.964;37.674;2023-07-13T06:11:05;98504.31;;;14.92;81.89
69622;BME280;56841;55.964;37.674;2023-07-13T06:13:31;98501.41;;;14.93;81.38
69622;BME280;56841;55.964;37.674;2023-07-13T06:15:58;98506.28;;;14.97;81.04
69622;BME280;56841;55.964;37.674;2023-07-13T06:18:24;98507.09;;;14.97;81.59
69622;BME280;56841;55.964;37.674;2023-07-13T06:20:50;98497.78;;;15.06;81.07
69622;BME280;56841;55.964;37.674;2023-07-13T06:23:15;98501.31;;;15.19;78.38
69622;BME280;56841;55.964;37.674;2023-07-13T06:25:43;98519.03;;;15.25;78.72
69622;BME280;56841;55.964;37.674;2023-07-13T06:28:08;98507.28;;;15.32;79.10
69622;BME280;56841;55.964;37.674;2023-07-13T06:30:34;98511.09;;;15.36;78.71
69622;BME280;56841;55.964;37.674;2023-07-13T06:33:00;98506.06;;;15.47;77.78
69622;BME280;56841;55.964;37.674;2023-07-13T06:35:25;98508.66;;;15.65;76.77
69622;BME280;56841;55.964;37.674;2023-07-13T06:37:51;98498.44;;;15.62;75.36
69622;BME280;56841;55.964;37.674;2023-07-13T06:40:17;98497.81;;;15.67;74.84
69622;BME280;56841;55.964;37.674;2023-07-13T06:42:44;98502.84;;;15.86;72.72
69622;BME280;56841;55.964;37.674;2023-07-13T06:45:10;98499.72;;;16.01;72.69
69622;BME280;56841;55.964;37.674;2023-07-13T06:47:36;98496.50;;;16.11;71.88
69622;BME280;56841;55.964;37.674;2023-07-13T06:50:02;98508.63;;;15.83;72.52
69622;BME280;56841;55.964;37.674;2023-07-13T06:52:30;98506.78;;;15.84;74.57
69622;BME280;56841;55.964;37.674;2023-07-13T06:54:55;98502.44;;;15.71;75.55
69622;BME280;56841;55.964;37.674;2023-07-13T06:57:21;98507.84;;;15.64;76.04
69622;BME280;56841;55.964;37.674;2023-07-13T06:59:47;98490.81;;;15.54;76.73
69622;BME280;56841;55.964;37.674;2023-07-13T07:02:13;98488.13;;;15.42;76.10
69622;BME280;56841;55.964;37.674;2023-07-13T07:04:39;98493.63;;;15.29;77.22
69622;BME280;56841;55.964;37.674;2023-07-13T07:07:05;98489.09;;;15.29;77.45
69622;BME280;56841;55.964;37.674;2023-07-13T07:09:30;98494.91;;;15.38;77.31
69622;BME280;56841;55.964;37.674;2023-07-13T07:11:57;98503.66;;;15.57;77.10
69622;BME280;56841;55.964;37.674;2023-07-13T07:14:23;98507.94;;;15.58;76.18
69622;BME280;56841;55.964;37.674;2023-07-13T07:16:49;98513.16;;;15.64;77.52
69622;BME280;56841;55.964;37.674;2023-07-13T07:19:15;98510.94;;;15.50;77.96
69622;BME280;56841;55.964;37.674;2023-07-13T07:21:41;98504.53;;;15.39;78.42
69622;BME280;56841;55.964;37.674;2023-07-13T07:24:07;98501.59;;;15.29;79.06
69622;BME280;56841;55.964;37.674;2023-07-13T07:26:33;98509.44;;;15.24;79.73
69622;BME280;56841;55.964;37.674;2023-07-13T07:28:59;98509.94;;;15.14;80.71
69622;BME280;56841;55.964;37.674;2023-07-13T07:31:24;98511.31;;;15.05;82.02
69622;BME280;56841;55.964;37.674;2023-07-13T07:33:50;98513.25;;;14.98;81.45
69622;BME280;56841;55.964;37.674;2023-07-13T07:36:16;98505.91;;;14.93;81.30
69622;BME280;56841;55.964;37.674;2023-07-13T07:38:43;98513.75;;;14.88;80.12
69622;BME280;56841;55.964;37.674;2023-07-13T07:41:09;98514.19;;;14.85;82.31
69622;BME280;56841;55.964;37.674;2023-07-13T07:43:36;98515.00;;;14.85;82.18
69622;BME280;56841;55.964;37.674;2023-07-13T07:46:02;98511.53;;;14.85;83.59
69622;BME280;56841;55.964;37.674;2023-07-13T07:48:29;98512.13;;;14.87;83.78
69622;BME280;56841;55.964;37.674;2023-07-13T07:50:55;98525.41;;;14.87;83.58
69622;BME280;56841;55.964;37.674;2023-07-13T07:53:21;98530.66;;;14.75;84.53
69622;BME280;56841;55.964;37.674;2023-07-13T07:55:46;98524.59;;;14.68;85.13
69622;BME280;56841;55.964;37.674;2023-07-13T07:58:13;98535.66;;;14.65;87.10
69622;BME280;56841;55.964;37.674;2023-07-13T08:00:39;98527.69;;;14.65;88.37
69622;BME280;56841;55.964;37.674;2023-07-13T08:03:05;98532.63;;;14.61;89.82
69622;BME280;56841;55.964;37.674;2023-07-13T08:05:31;98526.28;;;14.62;87.54
69622;BME280;56841;55.964;37.674;2023-07-13T08:07:57;98531.53;;;14.69;89.55
69622;BME280;56841;55.964;37.674;2023-07-13T08:10:23;98529.63;;;14.76;88.68
69622;BME280;56841;55.964;37.674;2023-07-13T08:12:48;98524.09;;;14.78;87.44
69622;BME280;56841;55.964;37.674;2023-07-13T08:15:16;98525.28;;;14.82;87.37
69622;BME280;56841;55.964;37.674;2023-07-13T08:17:42;98521.56;;;14.83;86.61
69622;BME280;56841;55.964;37.674;2023-07-13T08:20:08;98512.88;;;14.94;89.32
69622;BME280;56841;55.964;37.674;2023-07-13T08:22:35;98505.72;;;14.95;86.40
69622;BME280;56841;55.964;37.674;2023-07-13T08:25:01;98517.59;;;14.92;85.31
69622;BME280;56841;55.964;37.674;2023-07-13T08:27:30;98517.59;;;14.92;84.73
69622;BME280;56841;55.964;37.674;2023-07-13T08:29:56;98513.31;;;14.91;85.54
69622;BME280;56841;55.964;37.674;2023-07-13T08:32:23;98513.31;;;14.91;85.44
69622;BME280;56841;55.964;37.674;2023-07-13T08:34:49;98514.56;;;14.88;85.78
69622;BME280;56841;55.964;37.674;2023-07-13T08:37:16;98517.44;;;14.87;87.11
69622;BME280;56841;55.964;37.674;2023-07-13T08:39:42;98526.31;;;14.81;89.37
69622;BME280;56841;55.964;37.674;2023-07-13T08:42:26;98523.28;;;14.77;89.55
69622;BME280;56841;55.964;37.674;2023-07-13T08:47:35;98534.72;;;14.96;89.29
69622;BME280;56841;55.964;37.674;2023-07-13T08:50:04;98533.22;;;15.00;89.11
69622;BME280;56841;55.964;37.674;2023-07-13T08:52:37;98536.63;;;15.07;90.06
69622;BME280;56841;55.964;37.674;2023-07-13T08:55:16;98529.69;;;15.06;90.54
69622;BME280;56841;55.964;37.674;2023-07-13T08:57:45;98530.00;;;14.98;89.18
69622;BME280;56841;55.964;37.674;2023-07-13T09:00:14;98544.16;;;14.92;88.18
69622;BME280;56841;55.964;37.674;2023-07-13T09:02:56;98550.81;;;14.83;91.76
69622;BME280;56841;55.964;37.674;2023-07-13T09:08:15;98551.59;;;14.65;96.42
69622;BME280;56841;55.964;37.674;2023-07-13T09:10:50;98549.63;;;14.60;94.16
69622;BME280;56841;55.964;37.674;2023-07-13T09:13:28;98556.13;;;14.64;95.05
69622;BME280;56841;55.964;37.674;2023-07-13T09:16:00;98550.13;;;14.69;95.04
69622;BME280;56841;55.964;37.674;2023-07-13T09:18:41;98549.31;;;14.68;95.83
69622;BME280;56841;55.964;37.674;2023-07-13T09:21:15;98538.84;;;14.74;94.31
69622;BME280;56841;55.964;37.674;2023-07-13T09:23:42;98552.28;;;14.79;91.03
69622;BME280;56841;55.964;37.674;2023-07-13T09:26:21;98554.50;;;14.82;85.99
69622;BME280;56841;55.964;37.674;2023-07-13T09:28:51;98543.50;;;14.97;85.23
69622;BME280;56841;55.964;37.674;2023-07-13T09:31:23;98547.72;;;15.04;83.25
69622;BME280;56841;55.964;37.674;2023-07-13T09:33:50;98545.19;;;15.09;82.61
69622;BME280;56841;55.964;37.674;2023-07-13T09:39:15;98528.03;;;15.24;80.80
69622;BME280;56841;55.964;37.674;2023-07-13T09:41:57;98524.09;;;15.14;77.02
69622;BME280;56841;55.964;37.674;2023-07-13T09:44:30;98524.59;;;15.05;78.99
69622;BME280;56841;55.964;37.674;2023-07-13T09:46:57;98524.88;;;14.97;77.41
69622;BME280;56841;55.964;37.674;2023-07-13T09:49:33;98522.31;;;14.90;79.01
69622;BME280;56841;55.964;37.674;2023-07-13T09:52:02;98520.56;;;14.84;78.47
69622;BME280;56841;55.964;37.674;2023-07-13T09:54:33;98524.97;;;14.72;80.08
69622;BME280;56841;55.964;37.674;2023-07-13T09:57:00;98530.22;;;14.60;83.63
69622;BME280;56841;55.964;37.674;2023-07-13T09:59:50;98527.03;;;14.51;86.85
69622;BME280;56841;55.964;37.674;2023-07-13T10:02:34;98530.56;;;14.38;88.75
69622;BME280;56841;55.964;37.674;2023-07-13T10:05:04;98539.63;;;14.31;91.19
69622;BME280;56841;55.964;37.674;2023-07-13T10:07:31;98536.59;;;14.27;93.97
69622;BME280;56841;55.964;37.674;2023-07-13T10:10:00;98530.69;;;14.25;95.91
69622;BME280;56841;55.964;37.674;2023-07-13T10:12:36;98533.63;;;14.17;100.00
69622;BME280;56841;55.964;37.674;2023-07-13T10:15:02;98528.38;;;14.10;100.00
69622;BME280;56841;55.964;37.674;2023-07-13T10:17:32;98539.84;;;14.04;100.00
69622;BME280;56841;55.964;37.674;2023-07-13T10:20:01;98538.66;;;14.00;100.00
69622;BME280;56841;55.964;37.674;2023-07-13T10:22:39;98542.16;;;13.94;100.00
69622;BME280;56841;55.964;37.674;2023-07-13T10:25:21;98536.44;;;13.97;100.00
69622;BME280;56841;55.964;37.674;2023-07-13T10:27:53;98529.50;;;13.96;100.00
69622;BME280;56841;55.964;37.674;2023-07-13T10:30:22;98529.31;;;13.91;100.00
69622;BME280;56841;55.964;37.674;2023-07-13T10:32:51;98532.03;;;13.84;100.00
69622;BME280;56841;55.964;37.674;2023-07-13T10:35:19;98522.72;;;13.75;100.00
69622;BME280;56841;55.964;37.674;2023-07-13T10:37:52;98534.19;;;13.69;100.00
69622;BME280;56841;55.964;37.674;2023-07-13T10:40:28;98532.19;;;13.64;100.00
69622;BME280;56841;55.964;37.674;2023-07-13T10:42:57;98534.84;;;13.64;100.00
69622;BME280;56841;55.964;37.674;2023-07-13T10:45:27;98529.53;;;13.64;100.00
69622;BME280;56841;55.964;37.674;2023-07-13T10:47:55;98529.97;;;13.61;100.00
69622;BME280;56841;55.964;37.674;2023-07-13T10:50:26;98538.91;;;13.60;100.00
69622;BME280;56841;55.964;37.674;2023-07-13T10:52:55;98544.06;;;13.55;100.00
69622;BME280;56841;55.964;37.674;2023-07-13T10:58:20;98544.31;;;13.47;100.00
69622;BME280;56841;55.964;37.674;2023-07-13T11:01:09;98556.13;;;13.51;100.00
69622;BME280;56841;55.964;37.674;2023-07-13T11:03:45;98548.41;;;13.43;100.00
69622;BME280;56841;55.964;37.674;2023-07-13T11:06:18;98551.91;;;13.37;100.00
69622;BME280;56841;55.964;37.674;2023-07-13T11:08:57;98546.81;;;13.35;100.00
69622;BME280;56841;55.964;37.674;2023-07-13T11:18:52;98569.75;;;13.03;100.00
69622;BME280;56841;55.964;37.674;2023-07-13T11:21:25;98576.69;;;12.97;100.00
69622;BME280;56841;55.964;37.674;2023-07-13T11:23:54;98577.09;;;12.94;100.00
69622;BME280;56841;55.964;37.674;2023-07-13T11:31:43;98585.06;;;12.88;100.00
69622;BME280;56841;55.964;37.674;2023-07-13T11:34:27;98575.50;;;12.87;100.00
69622;BME280;56841;55.964;37.674;2023-07-13T11:36:56;98578.75;;;12.89;100.00
69622;BME280;56841;55.964;37.674;2023-07-13T11:39:31;98572.84;;;12.87;100.00
69622;BME280;56841;55.964;37.674;2023-07-13T11:42:05;98585.28;;;12.86;100.00
69622;BME280;56841;55.964;37.674;2023-07-13T11:44:33;98591.41;;;12.87;100.00
69622;BME280;56841;55.964;37.674;2023-07-13T11:47:09;98586.91;;;12.87;100.00
69622;BME280;56841;55.964;37.674;2023-07-13T11:49:49;98589.38;;;12.82;100.00
69622;BME280;56841;55.964;37.674;2023-07-13T11:52:18;98600.56;;;12.77;100.00
69622;BME280;56841;55.964;37.674;2023-07-13T11:54:53;98598.16;;;12.69;100.00
69622;BME280;56841;55.964;37.674;2023-07-13T11:57:36;98606.09;;;12.69;100.00
69622;BME280;56841;55.964;37.674;2023-07-13T12:00:11;98607.72;;;12.64;100.00
69622;BME280;56841;55.964;37.674;2023-07-13T12:02:40;98608.53;;;12.64;100.00
69622;BME280;56841;55.964;37.674;2023-07-13T12:05:13;98602.66;;;12.62;100.00
69622;BME280;56841;55.964;37.674;2023-07-13T12:07:40;98592.44;;;12.72;100.00
69622;BME280;56841;55.964;37.674;2023-07-13T12:12:37;98599.78;;;12.77;100.00
69622;BME280;56841;55.964;37.674;2023-07-13T12:15:07;98593.66;;;12.83;100.00
69622;BME280;56841;55.964;37.674;2023-07-13T12:17:34;98596.69;;;12.87;100.00
69622;BME280;56841;55.964;37.674;2023-07-13T12:20:03;98600.16;;;12.94;100.00
69622;BME280;56841;55.964;37.674;2023-07-13T12:22:37;98593.22;;;12.99;100.00
69622;BME280;56841;55.964;37.674;2023-07-13T12:25:03;98597.88;;;12.97;100.00
69622;BME280;56841;55.964;37.674;2023-07-13T12:27:30;98593.22;;;12.99;100.00
69622;BME280;56841;55.964;37.674;2023-07-13T12:30:04;98590.53;;;13.06;100.00
69622;BME280;56841;55.964;37.674;2023-07-13T12:32:32;98578.94;;;13.00;100.00
69622;BME280;56841;55.964;37.674;2023-07-13T12:35:24;98587.69;;;13.01;100.00
69622;BME280;56841;55.964;37.674;2023-07-13T12:37:51;98583.00;;;13.03;100.00
69622;BME280;56841;55.964;37.674;2023-07-13T12:40:21;98582.38;;;13.08;100.00
69622;BME280;56841;55.964;37.674;2023-07-13T12:42:52;98590.31;;;13.14;100.00
69622;BME280;56841;55.964;37.674;2023-07-13T12:45:25;98584.38;;;13.12;100.00
69622;BME280;56841;55.964;37.674;2023-07-13T12:48:17;98587.66;;;13.14;100.00
69622;BME280;56841;55.964;37.674;2023-07-13T12:50:47;98590.31;;;13.14;100.00
69622;BME280;56841;55.964;37.674;2023-07-13T12:53:17;98588.84;;;13.18;100.00
69622;BME280;56841;55.964;37.674;2023-07-13T12:55:50;98591.50;;;13.18;100.00
69622;BME280;56841;55.964;37.674;2023-07-13T12:58:28;98588.44;;;13.21;100.00
69622;BME280;56841;55.964;37.674;2023-07-13T13:00:57;98584.97;;;13.21;100.00
69622;BME280;56841;55.964;37.674;2023-07-13T13:03:32;98585.78;;;13.21;100.00
69622;BME280;56841;55.964;37.674;2023-07-13T13:06:28;98590.47;;;13.26;100.00
69622;BME280;56841;55.964;37.674;2023-07-13T13:08:55;98586.59;;;13.28;100.00
69622;BME280;56841;55.964;37.674;2023-07-13T13:11:23;98581.31;;;13.28;100.00
69622;BME280;56841;55.964;37.674;2023-07-13T13:13:50;98589.25;;;13.22;100.00
69622;BME280;56841;55.964;37.674;2023-07-13T13:16:29;98580.91;;;13.25;100.00
69622;BME280;56841;55.964;37.674;2023-07-13T13:19:05;98590.47;;;13.19;100.00
69622;BME280;56841;55.964;37.674;2023-07-13T13:21:35;98578.25;;;13.18;100.00